Time;durP1;ratioP1;P1;durP2;ratioP2;P2;SDS_P1;SDS_P2;PMS_P1;PMS_P2;Temp;Humidity;BMP_temperature;BMP_pressure;BME280_temperature;BME280_humidity;BME280_pressure;Samples;Min_cycle;Max_cycle;Signal;HPM_P1;HPM_P2
2022/10/20 00:02:06;;;;;;;4.40;2.80;;;;;;;;;;4988819;28;20241;-73
2022/10/20 00:04:33;;;;;;;4.93;2.40;;;;;;;;;;4972219;28;20228;-74
2022/10/20 00:06:59;;;;;;;3.40;2.43;;;;;;;;;;4971720;28;20230;-74
2022/10/20 00:09:24;;;;;;;2.50;2.30;;;;;;;;;;5004280;28;20244;-73
2022/10/20 00:11:50;;;;;;;4.13;2.80;;;;;;;;;;5004179;28;20233;-74
2022/10/20 00:14:20;;;;;;;3.03;2.10;;;;;;;;;;4955267;28;20226;-74
2022/10/20 00:16:45;;;;;;;4.57;2.23;;;;;;;;;;4991741;28;20345;-74
2022/10/20 00:19:16;;;;;;;3.43;2.33;;;;;;;;;;4972245;28;20217;-75
2022/10/20 00:21:42;;;;;;;3.30;2.37;;;;;;;;;;4988080;28;20249;-74
2022/10/20 00:24:07;;;;;;;5.30;2.37;;;;;;;;;;5010790;28;20284;-74
2022/10/20 00:26:33;;;;;;;4.80;2.33;;;;;;;;;;4989895;28;20225;-74
2022/10/20 00:29:00;;;;;;;3.17;2.33;;;;;;;;;;4956293;28;20759;-74
2022/10/20 00:31:25;;;;;;;6.20;2.40;;;;;;;;;;4988866;28;20221;-74
2022/10/20 00:33:51;;;;;;;2.97;2.30;;;;;;;;;;4973497;28;20232;-73
2022/10/20 00:36:20;;;;;;;5.03;2.30;;;;;;;;;;4988775;28;20225;-74
2022/10/20 00:38:48;;;;;;;2.40;2.07;;;;;;;;;;4987863;28;20611;-74
2022/10/20 00:41:15;;;;;;;7.63;2.60;;;;;;;;;;5004639;28;20234;-73
2022/10/20 00:43:53;;;;;;;2.67;2.30;;;;;;;;;;5008752;28;20217;-74
2022/10/20 00:46:39;;;;;;;5.50;2.40;;;;;;;;;;4987715;28;20225;-73
2022/10/20 00:49:14;;;;;;;4.00;2.53;;;;;;;;;;4988018;28;20241;-74
2022/10/20 00:51:40;;;;;;;3.83;2.20;;;;;;;;;;4973331;28;20217;-73
2022/10/20 00:54:10;;;;;;;3.03;2.00;;;;;;;;;;5005263;28;20229;-73
2022/10/20 00:56:37;;;;;;;2.33;2.13;;;;;;;;;;4972940;28;20835;-73
2022/10/20 00:59:10;;;;;;;3.03;2.43;;;;;;;;;;5005038;28;20237;-74
2022/10/20 01:01:36;;;;;;;3.07;2.10;;;;;;;;;;4973571;28;20239;-73
2022/10/20 01:04:04;;;;;;;3.20;2.50;;;;;;;;;;4973087;28;20702;-74
2022/10/20 01:06:30;;;;;;;5.17;2.47;;;;;;;;;;5004459;28;20225;-73
2022/10/20 01:08:57;;;;;;;2.97;2.30;;;;;;;;;;5007538;28;20626;-73
2022/10/20 01:11:26;;;;;;;3.40;2.10;;;;;;;;;;5005020;28;21020;-73
2022/10/20 01:14:23;;;;;;;2.97;2.27;;;;;;;;;;4993475;28;20233;-73
2022/10/20 01:17:00;;;;;;;2.83;2.00;;;;;;;;;;4987900;28;20233;-73
2022/10/20 01:19:33;;;;;;;3.83;2.30;;;;;;;;;;4988241;28;20221;-73
2022/10/20 01:22:14;;;;;;;3.80;2.40;;;;;;;;;;4986231;28;20316;-74
2022/10/20 01:24:55;;;;;;;2.73;1.90;;;;;;;;;;4989423;28;20320;-73
2022/10/20 01:27:33;;;;;;;2.30;2.10;;;;;;;;;;5004093;28;20699;-72
2022/10/20 01:30:17;;;;;;;2.50;2.30;;;;;;;;;;4973045;28;20295;-73
2022/10/20 01:32:46;;;;;;;4.73;2.50;;;;;;;;;;4971813;28;20259;-72
2022/10/20 01:35:28;;;;;;;3.60;2.50;;;;;;;;;;4989080;28;20755;-74
2022/10/20 01:38:14;;;;;;;2.33;2.13;;;;;;;;;;4957350;28;20231;-74
2022/10/20 01:40:55;;;;;;;2.17;2.00;;;;;;;;;;4966342;28;20233;-75
2022/10/20 01:43:22;;;;;;;2.60;2.40;;;;;;;;;;4987103;28;20730;-74
2022/10/20 01:45:50;;;;;;;4.40;2.20;;;;;;;;;;4987623;28;20233;-74
2022/10/20 01:48:23;;;;;;;2.53;2.30;;;;;;;;;;4971571;28;20312;-74
2022/10/20 01:50:48;;;;;;;6.30;2.40;;;;;;;;;;4972578;28;20225;-73
2022/10/20 01:53:14;;;;;;;3.63;2.03;;;;;;;;;;5003964;28;20221;-74
2022/10/20 01:55:39;;;;;;;2.40;2.03;;;;;;;;;;4993645;28;20260;-74
2022/10/20 01:58:24;;;;;;;6.30;2.37;;;;;;;;;;4975961;28;20696;-77
2022/10/20 02:01:29;;;;;;;2.77;1.87;;;;;;;;;;4989203;28;20242;-74
2022/10/20 02:03:58;;;;;;;3.63;2.17;;;;;;;;;;4973727;28;20253;-75
2022/10/20 02:06:44;;;;;;;5.23;2.23;;;;;;;;;;4964064;28;20349;-74
2022/10/20 02:09:16;;;;;;;2.27;1.97;;;;;;;;;;4988991;28;20237;-74
2022/10/20 02:12:04;;;;;;;3.07;2.07;;;;;;;;;;4971616;28;20316;-74
2022/10/20 02:14:33;;;;;;;3.63;2.00;;;;;;;;;;4987681;28;20218;-74
2022/10/20 02:17:08;;;;;;;1.90;1.80;;;;;;;;;;5004310;28;20217;-75
2022/10/20 02:19:35;;;;;;;3.37;1.97;;;;;;;;;;4971883;28;20320;-74
2022/10/20 02:22:01;;;;;;;2.37;1.70;;;;;;;;;;4975078;28;20241;-74
2022/10/20 02:24:30;;;;;;;4.07;1.93;;;;;;;;;;4987099;28;20213;-75
2022/10/20 02:27:03;;;;;;;3.07;1.97;;;;;;;;;;4972321;28;20221;-74
2022/10/20 02:29:39;;;;;;;4.43;2.13;;;;;;;;;;4986211;28;20230;-73
2022/10/20 02:32:05;;;;;;;3.57;2.00;;;;;;;;;;5002352;28;20225;-72
2022/10/20 02:34:33;;;;;;;2.20;2.00;;;;;;;;;;4969710;28;20236;-74
2022/10/20 02:36:58;;;;;;;3.47;2.07;;;;;;;;;;4971543;28;20221;-74
2022/10/20 02:39:26;;;;;;;2.20;1.97;;;;;;;;;;5002307;28;20222;-75
2022/10/20 02:41:54;;;;;;;4.17;2.30;;;;;;;;;;4987198;28;20253;-75
2022/10/20 02:44:19;;;;;;;3.07;2.40;;;;;;;;;;5009801;28;20292;-75
2022/10/20 02:46:47;;;;;;;4.63;2.20;;;;;;;;;;4987063;28;20747;-74
2022/10/20 02:49:13;;;;;;;6.67;2.63;;;;;;;;;;5003034;28;20633;-74
2022/10/20 02:51:40;;;;;;;2.70;1.90;;;;;;;;;;5010948;28;20229;-75
2022/10/20 02:54:09;;;;;;;4.00;2.57;;;;;;;;;;4987225;28;20213;-76
2022/10/20 02:56:37;;;;;;;2.67;2.47;;;;;;;;;;4987093;28;20703;-73
2022/10/20 02:59:16;;;;;;;3.17;2.33;;;;;;;;;;5003115;28;20213;-73
2022/10/20 03:01:44;;;;;;;3.60;2.70;;;;;;;;;;4993088;28;20609;-73
2022/10/20 03:04:12;;;;;;;3.50;2.50;;;;;;;;;;4986942;28;20235;-73
2022/10/20 03:06:38;;;;;;;2.57;2.37;;;;;;;;;;4986381;28;20356;-73
2022/10/20 03:09:05;;;;;;;2.83;2.40;;;;;;;;;;4970576;28;20652;-72
2022/10/20 03:11:31;;;;;;;3.13;2.67;;;;;;;;;;5003297;28;20244;-75
2022/10/20 03:13:59;;;;;;;3.23;2.50;;;;;;;;;;4987500;28;20336;-74
2022/10/20 03:16:24;;;;;;;4.13;2.40;;;;;;;;;;5002978;28;20301;-74
2022/10/20 03:18:52;;;;;;;3.17;2.70;;;;;;;;;;5006044;28;20336;-74
2022/10/20 03:21:18;;;;;;;3.13;2.83;;;;;;;;;;4987046;28;20233;-74
2022/10/20 03:23:43;;;;;;;3.30;2.80;;;;;;;;;;5003462;28;20651;-73
2022/10/20 03:26:13;;;;;;;4.63;2.53;;;;;;;;;;5003047;28;20279;-74
2022/10/20 03:28:44;;;;;;;3.20;2.83;;;;;;;;;;5002918;28;20257;-74
2022/10/20 03:31:11;;;;;;;3.13;2.83;;;;;;;;;;5004593;28;20267;-74
2022/10/20 03:33:39;;;;;;;4.13;3.27;;;;;;;;;;4990748;28;20232;-74
2022/10/20 03:36:07;;;;;;;5.47;3.10;;;;;;;;;;4976005;28;20228;-72
2022/10/20 03:38:32;;;;;;;7.10;3.23;;;;;;;;;;5007161;28;20232;-73
2022/10/20 03:41:00;;;;;;;3.70;3.07;;;;;;;;;;4990632;28;20229;-74
2022/10/20 03:43:25;;;;;;;3.50;3.20;;;;;;;;;;4975918;28;20213;-72
2022/10/20 03:46:00;;;;;;;4.43;3.07;;;;;;;;;;5006854;28;21094;-74
2022/10/20 03:48:25;;;;;;;3.20;2.90;;;;;;;;;;4957040;28;20228;-73
2022/10/20 03:50:56;;;;;;;3.40;3.07;;;;;;;;;;5006927;28;20237;-74
2022/10/20 03:53:23;;;;;;;3.60;3.30;;;;;;;;;;5010100;28;20221;-73
2022/10/20 03:55:49;;;;;;;3.90;3.03;;;;;;;;;;4995247;28;20235;-73
2022/10/20 03:58:14;;;;;;;3.37;3.07;;;;;;;;;;4991322;28;20225;-73
2022/10/20 04:00:40;;;;;;;3.90;3.33;;;;;;;;;;5008637;28;20225;-73
2022/10/20 04:03:08;;;;;;;3.30;3.00;;;;;;;;;;4989065;28;20712;-74
2022/10/20 04:05:33;;;;;;;4.00;3.10;;;;;;;;;;4973715;28;20217;-74
2022/10/20 04:08:03;;;;;;;6.23;3.57;;;;;;;;;;4990480;28;20290;-72
2022/10/20 04:10:29;;;;;;;4.13;3.00;;;;;;;;;;4989367;28;20316;-74
2022/10/20 04:13:02;;;;;;;3.93;3.00;;;;;;;;;;4988804;28;20661;-74
2022/10/20 04:15:27;;;;;;;3.47;2.90;;;;;;;;;;4964190;28;20221;-73
2022/10/20 04:17:53;;;;;;;4.00;3.47;;;;;;;;;;5006404;28;20236;-75
2022/10/20 04:20:18;;;;;;;3.10;2.87;;;;;;;;;;4989210;28;20225;-74
2022/10/20 04:22:44;;;;;;;4.87;3.30;;;;;;;;;;4973597;28;20244;-74
2022/10/20 04:25:11;;;;;;;5.00;3.23;;;;;;;;;;4995600;28;20726;-75
2022/10/20 04:27:39;;;;;;;3.27;3.00;;;;;;;;;;4988690;28;20695;-74
2022/10/20 04:30:05;;;;;;;3.60;3.27;;;;;;;;;;4990273;28;20280;-74
2022/10/20 04:32:31;;;;;;;3.37;2.90;;;;;;;;;;4988606;28;20229;-72
2022/10/20 04:34:59;;;;;;;3.40;3.10;;;;;;;;;;4973685;28;20228;-73
2022/10/20 04:37:26;;;;;;;5.53;4.00;;;;;;;;;;4988886;28;20606;-74
2022/10/20 04:39:52;;;;;;;3.57;2.87;;;;;;;;;;5005668;28;20256;-74
2022/10/20 04:42:19;;;;;;;3.27;2.97;;;;;;;;;;5004273;28;20879;-74
2022/10/20 04:44:50;;;;;;;3.57;3.20;;;;;;;;;;4973542;28;20222;-73
2022/10/20 04:47:18;;;;;;;3.33;2.73;;;;;;;;;;4982114;28;20225;-74
2022/10/20 04:49:46;;;;;;;4.67;3.13;;;;;;;;;;4988097;28;20236;-73
2022/10/20 04:52:11;;;;;;;3.07;2.77;;;;;;;;;;4993953;28;20695;-74
2022/10/20 04:54:36;;;;;;;3.10;2.80;;;;;;;;;;5003809;28;20221;-73
2022/10/20 04:57:05;;;;;;;3.10;2.80;;;;;;;;;;5004860;28;20217;-73
2022/10/20 04:59:30;;;;;;;4.20;2.83;;;;;;;;;;4978580;28;20225;-74
2022/10/20 05:01:59;;;;;;;4.30;2.97;;;;;;;;;;4990130;28;20628;-73
2022/10/20 05:04:24;;;;;;;6.13;2.97;;;;;;;;;;4986198;28;20225;-74
2022/10/20 05:06:52;;;;;;;3.20;2.90;;;;;;;;;;4989056;28;20229;-74
2022/10/20 05:09:18;;;;;;;3.37;2.93;;;;;;;;;;4972616;28;20265;-75
2022/10/20 05:11:43;;;;;;;3.00;2.77;;;;;;;;;;4972827;28;20225;-73
2022/10/20 05:14:09;;;;;;;3.63;2.57;;;;;;;;;;4988863;28;20217;-74
2022/10/20 05:16:39;;;;;;;2.60;2.40;;;;;;;;;;4993939;28;20232;-74
2022/10/20 05:19:08;;;;;;;5.13;2.70;;;;;;;;;;4989519;28;20249;-73
2022/10/20 05:21:33;;;;;;;3.07;2.37;;;;;;;;;;4970588;28;20226;-73
2022/10/20 05:24:00;;;;;;;3.93;3.00;;;;;;;;;;5005355;28;20621;-75
2022/10/20 05:26:33;;;;;;;2.83;2.63;;;;;;;;;;4989368;28;20217;-74
2022/10/20 05:29:02;;;;;;;3.33;2.57;;;;;;;;;;5002856;28;20222;-74
2022/10/20 05:31:30;;;;;;;2.70;2.50;;;;;;;;;;4987656;28;20905;-74
2022/10/20 05:34:00;;;;;;;3.03;2.50;;;;;;;;;;4977150;28;20231;-73
2022/10/20 05:36:26;;;;;;;2.80;2.60;;;;;;;;;;5004178;28;20288;-73
2022/10/20 05:38:52;;;;;;;4.60;2.50;;;;;;;;;;4972252;28;20237;-73
2022/10/20 05:41:23;;;;;;;2.63;2.43;;;;;;;;;;4987276;28;20236;-74
2022/10/20 05:43:49;;;;;;;2.70;2.50;;;;;;;;;;5009398;28;20232;-74
2022/10/20 05:46:17;;;;;;;6.57;2.67;;;;;;;;;;4988220;28;20221;-73
2022/10/20 05:48:43;;;;;;;2.37;2.20;;;;;;;;;;4971727;28;20723;-74
2022/10/20 05:51:13;;;;;;;2.87;2.50;;;;;;;;;;4987675;28;20272;-73
2022/10/20 05:53:39;;;;;;;2.90;2.70;;;;;;;;;;4987134;28;20236;-74
2022/10/20 05:56:08;;;;;;;2.60;2.20;;;;;;;;;;5002805;28;20292;-74
2022/10/20 05:58:33;;;;;;;3.93;2.40;;;;;;;;;;4967558;28;20229;-73
2022/10/20 06:01:09;;;;;;;3.67;2.60;;;;;;;;;;4988049;28;20623;-72
2022/10/20 06:03:35;;;;;;;2.50;2.30;;;;;;;;;;4987107;28;20240;-73
2022/10/20 06:06:02;;;;;;;3.93;2.73;;;;;;;;;;4971150;28;20327;-74
2022/10/20 06:08:31;;;;;;;3.63;2.63;;;;;;;;;;4987370;28;20218;-73
2022/10/20 06:11:06;;;;;;;5.23;2.90;;;;;;;;;;4972664;28;20225;-73
2022/10/20 06:13:35;;;;;;;2.63;2.43;;;;;;;;;;4966842;28;20229;-73
2022/10/20 06:16:05;;;;;;;3.80;2.70;;;;;;;;;;5002126;28;20226;-73
2022/10/20 06:18:31;;;;;;;3.30;2.57;;;;;;;;;;4993359;28;20225;-73
2022/10/20 06:20:59;;;;;;;3.17;2.87;;;;;;;;;;4970394;28;20228;-73
2022/10/20 06:23:26;;;;;;;3.37;2.93;;;;;;;;;;4989977;28;20225;-74
2022/10/20 06:25:56;;;;;;;4.20;2.90;;;;;;;;;;4988012;28;20312;-75
2022/10/20 06:28:27;;;;;;;4.50;2.83;;;;;;;;;;4980500;28;20221;-73
2022/10/20 06:30:52;;;;;;;2.80;2.60;;;;;;;;;;4987859;28;20760;-75
2022/10/20 06:33:17;;;;;;;6.60;2.93;;;;;;;;;;4958453;28;20221;-72
2022/10/20 06:35:43;;;;;;;3.03;2.73;;;;;;;;;;5000830;28;20295;-74
2022/10/20 06:38:13;;;;;;;2.87;2.67;;;;;;;;;;4986888;28;20226;-73
2022/10/20 06:40:40;;;;;;;3.53;3.10;;;;;;;;;;5000688;28;20263;-72
2022/10/20 06:43:06;;;;;;;3.30;3.00;;;;;;;;;;4954936;28;20287;-74
2022/10/20 06:45:34;;;;;;;3.40;3.07;;;;;;;;;;4992636;28;20221;-74
2022/10/20 06:47:59;;;;;;;5.77;2.60;;;;;;;;;;4971321;28;20319;-73
2022/10/20 06:50:25;;;;;;;3.10;2.80;;;;;;;;;;4971425;28;20222;-73
2022/10/20 06:52:53;;;;;;;3.27;2.97;;;;;;;;;;4970508;28;20711;-73
2022/10/20 06:55:21;;;;;;;3.30;3.00;;;;;;;;;;4971628;28;20229;-73
2022/10/20 06:57:46;;;;;;;3.63;2.73;;;;;;;;;;5003190;28;20225;-73
2022/10/20 07:00:12;;;;;;;5.80;3.40;;;;;;;;;;4987205;28;20235;-74
2022/10/20 07:02:40;;;;;;;4.70;3.10;;;;;;;;;;5002989;28;20217;-73
2022/10/20 07:05:06;;;;;;;3.23;2.90;;;;;;;;;;4980888;28;20233;-73
2022/10/20 07:07:31;;;;;;;3.27;2.97;;;;;;;;;;5007744;28;20236;-74
2022/10/20 07:09:57;;;;;;;4.17;2.90;;;;;;;;;;4991110;28;20260;-74
2022/10/20 07:12:25;;;;;;;3.00;2.70;;;;;;;;;;5006847;28;20229;-74
2022/10/20 07:14:50;;;;;;;3.67;3.20;;;;;;;;;;5011770;28;20228;-74
2022/10/20 07:17:16;;;;;;;3.50;3.03;;;;;;;;;;5007229;28;20230;-73
2022/10/20 07:19:41;;;;;;;4.43;3.37;;;;;;;;;;4990941;28;20229;-72
2022/10/20 07:22:09;;;;;;;5.83;3.77;;;;;;;;;;5006580;28;20696;-74
2022/10/20 07:24:35;;;;;;;4.27;3.20;;;;;;;;;;4991083;28;20252;-73
2022/10/20 07:27:02;;;;;;;3.87;3.43;;;;;;;;;;5010218;28;20583;-73
2022/10/20 07:29:28;;;;;;;3.80;3.40;;;;;;;;;;4989166;28;20229;-73
2022/10/20 07:31:54;;;;;;;3.70;3.40;;;;;;;;;;4988901;28;20225;-74
2022/10/20 07:34:24;;;;;;;3.90;3.23;;;;;;;;;;5010947;28;20222;-73
2022/10/20 07:36:50;;;;;;;3.63;3.33;;;;;;;;;;5005892;28;20252;-74
2022/10/20 07:39:15;;;;;;;8.07;3.60;;;;;;;;;;4991199;28;20735;-73
2022/10/20 07:41:44;;;;;;;4.00;3.50;;;;;;;;;;5011797;28;20336;-73
2022/10/20 07:44:10;;;;;;;3.73;3.33;;;;;;;;;;4994486;28;20280;-73
2022/10/20 07:46:35;;;;;;;3.83;3.53;;;;;;;;;;4990292;28;20221;-74
2022/10/20 07:49:01;;;;;;;3.40;3.13;;;;;;;;;;4973577;28;20241;-73
2022/10/20 07:51:33;;;;;;;6.27;3.63;;;;;;;;;;4990308;28;20221;-73
2022/10/20 07:54:01;;;;;;;4.27;3.57;;;;;;;;;;4974289;28;20245;-74
2022/10/20 07:56:31;;;;;;;5.20;3.93;;;;;;;;;;4989501;28;20595;-74
2022/10/20 07:58:57;;;;;;;5.50;3.43;;;;;;;;;;4991251;28;20225;-73
2022/10/20 08:01:22;;;;;;;4.83;3.27;;;;;;;;;;4988479;28;20243;-73
2022/10/20 08:03:50;;;;;;;4.00;3.43;;;;;;;;;;4957638;28;20288;-74
2022/10/20 08:06:16;;;;;;;4.67;3.63;;;;;;;;;;4970775;28;20226;-74
2022/10/20 08:08:41;;;;;;;3.53;3.23;;;;;;;;;;4988720;28;20706;-74
2022/10/20 08:11:07;;;;;;;4.20;3.43;;;;;;;;;;5003635;28;20288;-74
2022/10/20 08:13:33;;;;;;;4.17;3.77;;;;;;;;;;4975254;28;20229;-73
2022/10/20 08:15:59;;;;;;;3.93;3.63;;;;;;;;;;4984302;28;20758;-74
2022/10/20 08:18:25;;;;;;;3.63;3.33;;;;;;;;;;4994473;28;20225;-73
2022/10/20 08:20:55;;;;;;;4.17;3.73;;;;;;;;;;4998069;28;20296;-74
2022/10/20 08:23:21;;;;;;;4.37;3.40;;;;;;;;;;5004384;28;20276;-74
2022/10/20 08:25:46;;;;;;;5.77;4.07;;;;;;;;;;4974513;28;20221;-73
2022/10/20 08:28:12;;;;;;;5.10;3.53;;;;;;;;;;4968000;28;20217;-71
2022/10/20 08:30:39;;;;;;;3.53;3.23;;;;;;;;;;4963074;28;20217;-73
2022/10/20 08:33:05;;;;;;;4.87;3.80;;;;;;;;;;5001747;28;20260;-72
2022/10/20 08:35:30;;;;;;;4.63;3.53;;;;;;;;;;4972720;28;20221;-71
2022/10/20 08:37:56;;;;;;;5.37;3.53;;;;;;;;;;4991661;28;20623;-71
2022/10/20 08:40:26;;;;;;;4.30;3.50;;;;;;;;;;4964320;28;20279;-71
2022/10/20 08:42:51;;;;;;;6.60;3.50;;;;;;;;;;4989706;28;20221;-73
2022/10/20 08:45:21;;;;;;;5.10;3.53;;;;;;;;;;4972657;28;20233;-71
2022/10/20 08:47:48;;;;;;;4.33;3.93;;;;;;;;;;4972887;28;20236;-71
2022/10/20 08:50:15;;;;;;;4.40;3.57;;;;;;;;;;4988128;28;20218;-71
2022/10/20 08:52:44;;;;;;;3.13;2.53;;;;;;;;;;5011041;28;20229;-73
2022/10/20 08:55:18;;;;;;;3.83;3.53;;;;;;;;;;4973112;28;20230;-73
2022/10/20 08:57:48;;;;;;;4.60;3.20;;;;;;;;;;4973388;28;20312;-73
2022/10/20 09:00:22;;;;;;;4.10;3.10;;;;;;;;;;4950468;28;20229;-72
2022/10/20 09:02:51;;;;;;;4.37;3.13;;;;;;;;;;4973081;28;20222;-73
2022/10/20 09:05:22;;;;;;;4.53;3.00;;;;;;;;;;4947409;28;20209;-72
2022/10/20 09:07:48;;;;;;;3.00;2.80;;;;;;;;;;4971261;28;20221;-73
2022/10/20 09:10:25;;;;;;;2.80;2.60;;;;;;;;;;4965743;28;20214;-73
2022/10/20 09:12:51;;;;;;;2.63;2.47;;;;;;;;;;4985968;28;20239;-72
2022/10/20 09:21:34;;;;;;;4.10;2.50;;;;;;;;;;5059625;28;20331;-72
2022/10/20 09:24:01;;;;;;;2.80;2.40;;;;;;;;;;5061295;28;20767;-72
2022/10/20 09:26:33;;;;;;;2.87;2.47;;;;;;;;;;5039362;28;20306;-72
2022/10/20 09:29:17;;;;;;;2.27;2.07;;;;;;;;;;5024947;28;20988;-72
2022/10/20 09:31:46;;;;;;;2.43;2.23;;;;;;;;;;5036929;28;20271;-72
2022/10/20 09:34:19;;;;;;;2.47;2.27;;;;;;;;;;5046170;28;20219;-72
2022/10/20 09:36:47;;;;;;;3.50;2.10;;;;;;;;;;5045830;28;20736;-72
2022/10/20 09:39:29;;;;;;;2.80;2.33;;;;;;;;;;5022911;28;20275;-72
2022/10/20 09:42:06;;;;;;;3.73;2.30;;;;;;;;;;5006065;28;20219;-72
2022/10/20 09:44:34;;;;;;;2.13;1.93;;;;;;;;;;5041556;28;20232;-72
2022/10/20 09:47:06;;;;;;;2.70;2.30;;;;;;;;;;5028846;28;20219;-72
2022/10/20 09:49:45;;;;;;;3.70;2.57;;;;;;;;;;5031534;28;20660;-71
2022/10/20 09:52:39;;;;;;;2.70;2.50;;;;;;;;;;5023146;28;20214;-73
2022/10/20 09:55:28;;;;;;;2.30;2.10;;;;;;;;;;5064297;28;20221;-71
2022/10/20 09:57:54;;;;;;;2.10;2.00;;;;;;;;;;5017367;28;20215;-73
2022/10/20 10:00:39;;;;;;;2.20;2.00;;;;;;;;;;5023996;28;20223;-72
2022/10/20 10:03:50;;;;;;;2.20;2.10;;;;;;;;;;5027789;28;20219;-71
2022/10/20 10:06:42;;;;;;;2.37;2.13;;;;;;;;;;5010007;28;20229;-72
2022/10/20 10:09:43;;;;;;;2.73;2.10;;;;;;;;;;5037815;28;20665;-72
2022/10/20 10:12:11;;;;;;;2.37;1.90;;;;;;;;;;4978474;28;20267;-74
2022/10/20 10:14:38;;;;;;;2.10;2.00;;;;;;;;;;5042717;28;20268;-72
2022/10/20 10:17:03;;;;;;;2.40;1.97;;;;;;;;;;5027023;28;20317;-72
2022/10/20 10:19:30;;;;;;;2.70;2.20;;;;;;;;;;5029541;28;20252;-73
2022/10/20 10:21:59;;;;;;;2.33;2.13;;;;;;;;;;5027715;28;20215;-72
2022/10/20 10:24:41;;;;;;;2.20;2.10;;;;;;;;;;5061512;28;20272;-72
2022/10/20 10:27:21;;;;;;;2.23;2.10;;;;;;;;;;5021731;28;20270;-73
2022/10/20 10:29:46;;;;;;;2.50;2.30;;;;;;;;;;5048230;28;20234;-72
2022/10/20 10:32:21;;;;;;;2.87;2.00;;;;;;;;;;4997069;28;20219;-72
2022/10/20 10:34:53;;;;;;;2.47;2.27;;;;;;;;;;5041763;28;20231;-72
2022/10/20 10:37:19;;;;;;;2.73;2.40;;;;;;;;;;5040132;28;20243;-71
2022/10/20 10:39:44;;;;;;;3.23;2.57;;;;;;;;;;4973967;28;20237;-72
2022/10/20 10:42:30;;;;;;;3.50;2.60;;;;;;;;;;4991186;28;20220;-73
2022/10/20 10:45:14;;;;;;;2.80;2.40;;;;;;;;;;5026811;28;20227;-72
2022/10/20 10:48:00;;;;;;;5.60;2.80;;;;;;;;;;5030309;28;20744;-72
2022/10/20 10:50:53;;;;;;;3.00;2.70;;;;;;;;;;5015839;28;20219;-71
2022/10/20 10:53:49;;;;;;;2.83;2.63;;;;;;;;;;5021140;28;20333;-73
2022/10/20 10:56:36;;;;;;;3.03;2.53;;;;;;;;;;5028436;28;20309;-72
2022/10/20 10:59:55;;;;;;;;;;;;;;;;;;;;;
2022/10/20 11:03:11;;;;;;;4.83;2.73;;;;;;;;;;5011551;28;20236;-72
2022/10/20 11:06:12;;;;;;;2.77;2.37;;;;;;;;;;5034267;28;20438;-73
2022/10/20 11:08:55;;;;;;;3.77;2.60;;;;;;;;;;5012770;28;20231;-74
2022/10/20 11:11:32;;;;;;;2.50;2.40;;;;;;;;;;5048997;28;20219;-74
2022/10/20 11:14:07;;;;;;;2.70;2.50;;;;;;;;;;5043527;28;20712;-74
2022/10/20 11:16:38;;;;;;;2.40;2.20;;;;;;;;;;5022143;28;20238;-72
2022/10/20 11:19:42;;;;;;;2.63;2.43;;;;;;;;;;5027645;28;20302;-72
2022/10/20 11:22:17;;;;;;;4.37;2.40;;;;;;;;;;5056513;28;20222;-74
2022/10/20 11:24:42;;;;;;;2.80;2.60;;;;;;;;;;5032991;28;20222;-73
2022/10/20 11:27:29;;;;;;;2.77;2.57;;;;;;;;;;5045381;28;21037;-73
2022/10/20 11:30:18;;;;;;;;;;;;;;;;;;;;;
2022/10/20 11:33:03;;;;;;;2.73;2.50;;;;;;;;;;5021739;28;20230;-73
2022/10/20 11:35:38;;;;;;;4.10;2.53;;;;;;;;;;5051651;28;20968;-75
2022/10/20 11:38:11;;;;;;;3.70;2.80;;;;;;;;;;5050555;28;20568;-74
2022/10/20 11:40:47;;;;;;;2.58;2.38;;;;;;;;;;5023411;28;20226;-75
2022/10/20 11:43:20;;;;;;;2.10;2.00;;;;;;;;;;4999804;28;20237;-74
2022/10/20 11:46:10;;;;;;;2.55;2.15;;;;;;;;;;5024384;28;20290;-73
2022/10/20 11:48:43;;;;;;;2.67;2.40;;;;;;;;;;5025294;28;20234;-73
2022/10/20 11:51:08;;;;;;;3.03;2.50;;;;;;;;;;5012511;28;20265;-73
2022/10/20 11:53:48;;;;;;;2.72;2.47;;;;;;;;;;5046655;28;20736;-73
2022/10/20 11:56:19;;;;;;;1.98;1.88;;;;;;;;;;5027737;28;20613;-73
2022/10/20 11:59:06;;;;;;;3.10;2.80;;;;;;;;;;5029398;28;20243;-74
2022/10/20 12:01:37;;;;;;;2.70;2.50;;;;;;;;;;5024044;28;20305;-73
2022/10/20 12:04:15;;;;;;;2.60;2.25;;;;;;;;;;5034908;28;20683;-74
2022/10/20 12:06:52;;;;;;;2.22;2.03;;;;;;;;;;5034913;28;20218;-75
2022/10/20 12:09:26;;;;;;;2.40;2.20;;;;;;;;;;5039550;28;20436;-74
2022/10/20 12:12:02;;;;;;;2.63;2.43;;;;;;;;;;5064018;28;20313;-73
2022/10/20 12:14:38;;;;;;;2.60;2.40;;;;;;;;;;5011344;28;20234;-74
2022/10/20 12:17:26;;;;;;;3.10;2.40;;;;;;;;;;5024012;28;20706;-73
2022/10/20 12:20:19;;;;;;;2.65;2.50;;;;;;;;;;5014638;28;20313;-74
2022/10/20 12:22:46;;;;;;;3.03;2.72;;;;;;;;;;5043618;28;20241;-73
2022/10/20 12:25:19;;;;;;;3.28;2.97;;;;;;;;;;5012069;28;20641;-74
2022/10/20 12:27:45;;;;;;;3.00;2.78;;;;;;;;;;5046873;28;20215;-73
2022/10/20 12:30:35;;;;;;;2.83;2.63;;;;;;;;;;5057537;28;20642;-73
2022/10/20 12:34:03;;;;;;;2.95;2.72;;;;;;;;;;5026642;28;20217;-72
2022/10/20 12:36:32;;;;;;;3.13;2.80;;;;;;;;;;5017548;28;20235;-73
2022/10/20 12:39:10;;;;;;;3.03;2.53;;;;;;;;;;5058554;28;20242;-75
2022/10/20 12:41:41;;;;;;;2.83;2.50;;;;;;;;;;5055085;28;20223;-74
2022/10/20 12:44:15;;;;;;;2.35;2.22;;;;;;;;;;5002062;28;20225;-75
2022/10/20 12:46:57;;;;;;;2.45;2.25;;;;;;;;;;5032789;28;20229;-74
2022/10/20 12:49:31;;;;;;;2.70;2.50;;;;;;;;;;5046913;28;20369;-73
2022/10/20 12:51:57;;;;;;;2.47;2.28;;;;;;;;;;5025569;28;20219;-74
2022/10/20 12:54:38;;;;;;;2.75;2.55;;;;;;;;;;5058992;28;20249;-74
2022/10/20 12:57:25;;;;;;;2.53;2.33;;;;;;;;;;5028571;28;20308;-72
2022/10/20 12:59:51;;;;;;;2.50;2.30;;;;;;;;;;5035345;28;20641;-73
2022/10/20 13:02:16;;;;;;;4.03;3.40;;;;;;;;;;5041867;28;20218;-74
2022/10/20 13:05:05;;;;;;;2.47;2.28;;;;;;;;;;5057268;28;20280;-74
2022/10/20 13:07:45;;;;;;;2.83;2.47;;;;;;;;;;5016450;28;20220;-73
2022/10/20 13:10:36;;;;;;;3.03;2.17;;;;;;;;;;5044858;28;20227;-74
2022/10/20 13:13:04;;;;;;;2.83;2.60;;;;;;;;;;5023067;28;20212;-74
2022/10/20 13:15:41;;;;;;;3.20;2.40;;;;;;;;;;5038874;28;22565;-74
2022/10/20 13:18:12;;;;;;;2.33;2.13;;;;;;;;;;5044645;28;20601;-73
2022/10/20 13:20:40;;;;;;;2.30;2.10;;;;;;;;;;5019885;28;20223;-75
2022/10/20 13:23:09;;;;;;;2.53;2.00;;;;;;;;;;5060704;28;20227;-74
2022/10/20 13:25:41;;;;;;;1.90;1.80;;;;;;;;;;5007689;28;20226;-74
2022/10/20 13:28:27;;;;;;;2.30;2.10;;;;;;;;;;5043364;28;20842;-74
2022/10/20 13:30:55;;;;;;;1.92;1.83;;;;;;;;;;5039391;28;20290;-75
2022/10/20 13:33:32;;;;;;;2.40;2.17;;;;;;;;;;5038997;28;20640;-74
2022/10/20 13:36:07;;;;;;;1.65;1.55;;;;;;;;;;5035590;28;20223;-74
2022/10/20 13:38:57;;;;;;;3.23;1.73;;;;;;;;;;5044505;28;20223;-74
2022/10/20 13:41:57;;;;;;;2.00;1.90;;;;;;;;;;5059823;28;20233;-74
2022/10/20 13:44:45;;;;;;;3.73;1.87;;;;;;;;;;5046925;28;20297;-74
2022/10/20 13:47:37;;;;;;;1.80;1.70;;;;;;;;;;5044724;28;20341;-74
2022/10/20 13:50:22;;;;;;;1.73;1.60;;;;;;;;;;5039569;28;20230;-74
2022/10/20 13:52:56;;;;;;;2.33;1.70;;;;;;;;;;5020993;28;20223;-74
2022/10/20 13:55:26;;;;;;;1.77;1.63;;;;;;;;;;5044092;28;20621;-74
2022/10/20 13:58:01;;;;;;;2.10;1.67;;;;;;;;;;5007048;28;20634;-74
2022/10/20 14:00:31;;;;;;;1.50;1.40;;;;;;;;;;5005660;28;20231;-74
2022/10/20 14:02:57;;;;;;;1.63;1.53;;;;;;;;;;5042123;28;20224;-74
2022/10/20 14:05:23;;;;;;;1.53;1.33;;;;;;;;;;5041905;28;20227;-73
2022/10/20 14:07:49;;;;;;;2.10;1.70;;;;;;;;;;4999721;28;20227;-75
2022/10/20 14:10:33;;;;;;;1.40;1.30;;;;;;;;;;5031680;28;20234;-75
2022/10/20 14:12:59;;;;;;;1.47;1.37;;;;;;;;;;5032225;28;20212;-73
2022/10/20 14:15:35;;;;;;;1.53;1.43;;;;;;;;;;5022720;28;20211;-75
2022/10/20 14:18:08;;;;;;;1.50;1.40;;;;;;;;;;5047011;28;20356;-75
2022/10/20 14:20:40;;;;;;;1.80;1.70;;;;;;;;;;5006114;28;20230;-74
2022/10/20 14:23:10;;;;;;;1.40;1.30;;;;;;;;;;5019724;28;20219;-74
2022/10/20 14:25:36;;;;;;;1.50;1.40;;;;;;;;;;5004824;28;20211;-74
2022/10/20 14:28:03;;;;;;;1.57;1.40;;;;;;;;;;5031403;28;20784;-74
2022/10/20 14:30:29;;;;;;;2.13;1.60;;;;;;;;;;5019483;28;20233;-73
2022/10/20 14:32:54;;;;;;;1.80;1.60;;;;;;;;;;5025214;28;20220;-74
2022/10/20 14:35:32;;;;;;;1.60;1.50;;;;;;;;;;5001163;28;20597;-74
2022/10/20 14:38:00;;;;;;;1.80;1.30;;;;;;;;;;5013369;28;20649;-73
2022/10/20 14:40:35;;;;;;;3.13;1.50;;;;;;;;;;5042221;28;20595;-73
2022/10/20 14:43:28;;;;;;;9.20;6.73;;;;;;;;;;5010244;28;20262;-74
2022/10/20 14:45:56;;;;;;;6.93;6.33;;;;;;;;;;5025178;28;20281;-74
2022/10/20 14:48:42;;;;;;;9.40;7.33;;;;;;;;;;5028704;28;20586;-71
2022/10/20 14:51:39;;;;;;;4.57;3.10;;;;;;;;;;5029522;28;20219;-76
2022/10/20 14:54:19;;;;;;;4.97;3.83;;;;;;;;;;5038498;28;20582;-74
2022/10/20 14:56:51;;;;;;;2.30;2.10;;;;;;;;;;5045857;28;20263;-73
2022/10/20 14:59:22;;;;;;;4.40;2.07;;;;;;;;;;5042559;28;20253;-71
2022/10/20 15:02:07;;;;;;;1.67;1.57;;;;;;;;;;5035385;28;20218;-74
2022/10/20 15:04:33;;;;;;;1.60;1.50;;;;;;;;;;5035397;28;20228;-73
2022/10/20 15:07:36;;;;;;;1.87;1.77;;;;;;;;;;5040613;28;20211;-74
2022/10/20 15:10:11;;;;;;;1.67;1.57;;;;;;;;;;5044644;28;20244;-73
2022/10/20 15:12:36;;;;;;;1.63;1.53;;;;;;;;;;5029554;28;20767;-74
2022/10/20 15:15:35;;;;;;;1.50;1.40;;;;;;;;;;5045720;28;20228;-73
2022/10/20 15:18:09;;;;;;;2.03;1.93;;;;;;;;;;5032085;28;20716;-74
2022/10/20 15:20:37;;;;;;;1.70;1.60;;;;;;;;;;5026883;28;20693;-75
2022/10/20 15:23:20;;;;;;;2.80;1.60;;;;;;;;;;5007328;28;20220;-75